Aérodrome :
LOGIN :

S'inscrire | Disclaimer

   EN    FR    IT 

 










Légende :    VFR   VFR Marginal   IFR   IFR Intensif   IFR Très Intensif
Visi : 
Plafond : 
>= 8 km
>= 3000ft
5 à 8 km
1000 à 3000 ft
1500m à 5 km
500 à 1000 ft
800 à 1500m
200 à 500 ft
< 800m
< 200 ft
Symboles :   Orages  Brouillard  Fortes neiges  Fortes précipitations  Vent > 20 kt
SIGMETs :   Divers  Orages  Givrage  Turbulence  Onde Orograph.  Cendres Volcan.






- Altitude de l'aérodrome : 458 ft


LFSI - St-Dizier

DERNIER METAR :
  • 241500Z AUTO 19006KT 9999 FEW032 OVC110 03/M02 Q1001

METARs EXPIRÉS :
  • 241430Z AUTO 20009KT 9999 FEW029 OVC120 03/M02 Q1002
  • 241400Z AUTO 20009KT 170V230 9999 SCT029 OVC130 04/M02 Q1002
  • 241330Z AUTO 19010KT 160V220 9999 SCT030 BKN130 OVC180 04/M02 Q1002
  • 241300Z AUTO 21010KT 9999 SCT029 SCT034 BKN130 04/M02 Q1002
  • 241230Z AUTO 21011KT 9999 BKN030 BKN160 BKN190 04/M01 Q1003

TAF TAF LFSI
Valide du 24 à 15h jusqu'au 25 à 15h UTC


241400Z 2415/2515 19010KT 1000 SNRA BKN003 OVC013
FM241900 23013KT 9999 BKN005
TEMPO 2420/2512 3000 SHSN BKN003 BKN015TCU



MET'MAP, la Météo Aéronautique d'un coup d'oeil ! - Copyright ORBIFLY Décembre 2007 - Disclaimer

ORBIFLY MET'MAP TEAM :

Programmation & Développement : Alexandra Zaïnal
Sur une idée originale de : Baudouin d'Aumeries
Assistance à la programmation : Marc-Olivier Méhu
Soutien technique & logistique : Manuel Goepfert

Contact : metmap@orbifly.com




SOURCES & CREDITS :

   NOAA